createdAt,value
2018-09-20T00:00:46.993Z,19.70
2018-09-20T00:03:13.304Z,19.67
2018-09-20T00:05:39.615Z,19.70
2018-09-20T00:08:05.935Z,19.72
2018-09-20T00:10:32.251Z,19.72
2018-09-20T00:12:58.574Z,19.68
2018-09-20T00:15:24.896Z,19.63
2018-09-20T00:17:51.209Z,19.60
2018-09-20T00:20:17.529Z,19.61
2018-09-20T00:22:43.844Z,19.59
2018-09-20T00:25:10.167Z,19.56
2018-09-20T00:27:36.481Z,19.56
2018-09-20T00:30:02.797Z,19.52
2018-09-20T00:32:29.111Z,19.49
2018-09-20T00:34:55.423Z,19.47
2018-09-20T00:37:21.737Z,19.50
2018-09-20T00:39:48.052Z,19.50
2018-09-20T00:42:14.356Z,19.48
2018-09-20T00:44:40.667Z,19.48
2018-09-20T00:47:06.982Z,19.44
2018-09-20T00:49:33.298Z,19.38
2018-09-20T00:51:59.606Z,19.38
2018-09-20T00:54:25.932Z,19.38
2018-09-20T00:56:52.243Z,19.35
2018-09-20T00:59:18.557Z,19.35
2018-09-20T01:01:44.878Z,19.38
2018-09-20T01:04:11.193Z,19.32
2018-09-20T01:06:37.509Z,19.32
2018-09-20T01:09:03.825Z,19.33
2018-09-20T01:11:30.146Z,19.32
2018-09-20T01:13:56.465Z,19.25
2018-09-20T01:16:22.776Z,19.18
2018-09-20T01:18:49.087Z,19.13
2018-09-20T01:21:15.402Z,19.12
2018-09-20T01:23:41.711Z,19.10
2018-09-20T01:26:08.031Z,19.11
2018-09-20T01:28:34.347Z,19.08
2018-09-20T01:31:00.662Z,19.04
2018-09-20T01:33:26.983Z,18.98
2018-09-20T01:35:53.305Z,18.98
2018-09-20T01:38:19.617Z,18.95
2018-09-20T01:40:45.926Z,18.89
2018-09-20T01:43:12.235Z,18.83
2018-09-20T01:45:38.560Z,18.79
2018-09-20T01:48:04.885Z,18.83
2018-09-20T01:50:31.200Z,18.83
2018-09-20T01:52:57.518Z,18.76
2018-09-20T01:55:23.827Z,18.76
2018-09-20T01:57:50.156Z,18.70
2018-09-20T02:00:16.461Z,18.70
2018-09-20T02:02:42.777Z,18.66
2018-09-20T02:05:09.135Z,18.55
2018-09-20T02:07:35.443Z,18.52
2018-09-20T02:10:01.758Z,18.52
2018-09-20T02:12:28.082Z,18.44
2018-09-20T02:14:54.383Z,18.47
2018-09-20T02:17:20.703Z,18.52
2018-09-20T02:19:47.019Z,18.54
2018-09-20T02:22:13.338Z,18.49
2018-09-20T02:24:39.654Z,18.38
2018-09-20T02:27:05.969Z,18.29
2018-09-20T02:29:32.286Z,18.30
2018-09-20T02:31:58.601Z,18.36
2018-09-20T02:34:24.919Z,18.34
2018-09-20T02:36:51.240Z,18.25
2018-09-20T02:39:17.558Z,18.20
2018-09-20T02:41:43.874Z,18.23
2018-09-20T02:44:10.197Z,18.25
2018-09-20T02:46:36.514Z,18.19
2018-09-20T02:49:02.842Z,18.15
2018-09-20T02:51:29.151Z,18.20
2018-09-20T02:53:55.467Z,18.16
2018-09-20T02:56:21.781Z,18.17
2018-09-20T02:58:48.170Z,18.10
2018-09-20T03:01:14.456Z,18.07
2018-09-20T03:03:40.732Z,18.00
2018-09-20T03:06:07.060Z,17.94
2018-09-20T03:08:33.379Z,17.89
2018-09-20T03:10:59.704Z,17.99
2018-09-20T03:13:26.026Z,17.95
2018-09-20T03:15:52.345Z,17.88
2018-09-20T03:18:18.687Z,17.91
2018-09-20T03:20:45.032Z,17.88
2018-09-20T03:23:11.345Z,17.81
2018-09-20T03:25:37.662Z,17.86
2018-09-20T03:28:03.975Z,17.88
2018-09-20T03:30:30.385Z,17.86
2018-09-20T03:32:56.619Z,17.83
2018-09-20T03:35:22.934Z,17.78
2018-09-20T03:37:49.250Z,17.77
2018-09-20T03:40:15.570Z,17.84
2018-09-20T03:42:41.894Z,17.77
2018-09-20T03:45:08.210Z,17.73
2018-09-20T03:47:34.532Z,17.68
2018-09-20T03:50:00.847Z,17.69
2018-09-20T03:52:27.166Z,17.75
2018-09-20T03:54:53.485Z,17.78
2018-09-20T03:57:19.802Z,17.76
2018-09-20T03:59:46.114Z,17.72
2018-09-20T04:02:12.432Z,17.66
2018-09-20T04:04:38.785Z,17.64
2018-09-20T04:07:05.120Z,17.62
2018-09-20T04:09:31.467Z,17.60
2018-09-20T04:11:57.743Z,17.72
2018-09-20T04:14:24.064Z,17.96
2018-09-20T04:16:50.381Z,18.02
2018-09-20T04:19:16.693Z,18.01
2018-09-20T04:21:43.007Z,18.12
2018-09-20T04:24:09.325Z,18.20
2018-09-20T04:26:35.641Z,18.16
2018-09-20T04:29:01.958Z,18.12
2018-09-20T04:31:28.272Z,18.03
2018-09-20T04:33:54.575Z,17.96
2018-09-20T04:36:20.896Z,17.96
2018-09-20T04:38:47.212Z,17.93
2018-09-20T04:41:13.529Z,17.93
2018-09-20T04:43:39.847Z,17.97
2018-09-20T04:46:06.166Z,18.05
2018-09-20T04:48:32.475Z,18.12
2018-09-20T04:50:58.787Z,18.13
2018-09-20T04:53:25.109Z,18.15
2018-09-20T04:55:51.419Z,18.16
2018-09-20T04:58:17.768Z,18.17
2018-09-20T05:00:44.051Z,18.19
2018-09-20T05:03:10.359Z,18.24
2018-09-20T05:05:36.674Z,18.26
2018-09-20T05:08:02.979Z,18.33
2018-09-20T05:10:29.293Z,18.38
2018-09-20T05:12:55.598Z,18.42
2018-09-20T05:15:21.919Z,18.36
2018-09-20T05:17:48.230Z,18.31
2018-09-20T05:20:14.608Z,18.35
2018-09-20T05:22:40.864Z,18.43
2018-09-20T05:25:07.191Z,18.55
2018-09-20T05:27:33.552Z,18.67
2018-09-20T05:29:59.860Z,18.78
2018-09-20T05:32:26.179Z,18.83
2018-09-20T05:34:52.535Z,18.93
2018-09-20T05:37:18.856Z,19.02
2018-09-20T05:39:45.167Z,19.07
2018-09-20T05:42:11.487Z,19.15
2018-09-20T05:44:37.807Z,19.26
2018-09-20T05:47:04.122Z,19.40
2018-09-20T05:49:30.443Z,19.52
2018-09-20T05:51:56.805Z,19.64
2018-09-20T05:54:23.131Z,19.75
2018-09-20T05:56:49.440Z,19.86
2018-09-20T05:59:15.779Z,19.99
2018-09-20T06:01:42.078Z,20.02
2018-09-20T06:04:08.393Z,20.11
2018-09-20T06:06:34.711Z,20.23
2018-09-20T06:09:01.028Z,20.34
2018-09-20T06:11:27.335Z,20.45
2018-09-20T06:13:53.654Z,20.56
2018-09-20T06:16:19.969Z,20.67
2018-09-20T06:18:46.322Z,20.89
2018-09-20T06:21:12.631Z,21.04
2018-09-20T06:23:38.993Z,21.08
2018-09-20T06:26:05.344Z,21.12
2018-09-20T06:28:31.700Z,21.26
2018-09-20T06:30:58.047Z,21.33
2018-09-20T06:33:24.369Z,21.49
2018-09-20T06:35:50.688Z,21.70
2018-09-20T06:38:17.049Z,21.87
2018-09-20T06:40:43.377Z,21.89
2018-09-20T06:43:09.689Z,21.94
2018-09-20T06:45:36.007Z,22.06
2018-09-20T06:48:02.316Z,22.09
2018-09-20T06:50:28.671Z,22.18
2018-09-20T06:52:54.945Z,22.48
2018-09-20T06:55:21.310Z,22.73
2018-09-20T06:57:47.623Z,22.96
2018-09-20T07:00:13.998Z,23.19
2018-09-20T07:02:40.315Z,23.39
2018-09-20T07:05:06.665Z,23.55
2018-09-20T07:07:32.969Z,23.67
2018-09-20T07:09:59.290Z,23.86
2018-09-20T07:12:25.630Z,24.03
2018-09-20T07:14:51.984Z,24.03
2018-09-20T07:17:18.293Z,24.02
2018-09-20T07:19:44.612Z,24.10
2018-09-20T07:22:10.931Z,24.24
2018-09-20T07:24:37.364Z,24.38
2018-09-20T07:27:03.693Z,24.50
2018-09-20T07:29:30.013Z,24.54
2018-09-20T07:34:22.651Z,24.86
2018-09-20T07:36:48.965Z,25.04
2018-09-20T07:39:15.287Z,25.17
2018-09-20T07:41:41.610Z,25.28
2018-09-20T07:44:07.931Z,25.27
2018-09-20T07:46:34.235Z,25.45
2018-09-20T07:49:00.555Z,25.57
2018-09-20T07:51:26.868Z,25.65
2018-09-20T07:53:53.248Z,25.78
2018-09-20T07:56:19.530Z,25.94
2018-09-20T07:58:45.909Z,26.04
2018-09-20T08:01:12.215Z,26.11
2018-09-20T08:03:38.523Z,26.27
2018-09-20T08:06:04.851Z,26.39
2018-09-20T08:08:31.159Z,26.60
2018-09-20T08:10:57.472Z,26.75
2018-09-20T08:13:23.798Z,26.87
2018-09-20T08:15:50.541Z,26.93
2018-09-20T08:18:16.864Z,27.02
2018-09-20T08:20:43.179Z,27.09
2018-09-20T08:23:09.543Z,27.20
2018-09-20T08:25:35.898Z,27.41
2018-09-20T08:28:02.247Z,27.53
2018-09-20T08:30:28.606Z,27.66
2018-09-20T08:32:54.957Z,27.62
2018-09-20T08:35:21.270Z,27.53
2018-09-20T08:37:47.679Z,27.60
2018-09-20T08:40:13.903Z,27.84
2018-09-20T08:42:40.213Z,28.03
2018-09-20T08:45:06.533Z,28.08
2018-09-20T08:47:32.856Z,28.18
2018-09-20T08:49:59.213Z,28.37
2018-09-20T08:52:25.531Z,28.59
2018-09-20T08:54:51.849Z,28.56
2018-09-20T08:57:18.209Z,28.49
2018-09-20T08:59:44.525Z,28.38
2018-09-20T09:02:10.855Z,28.24
2018-09-20T09:04:37.206Z,28.24
2018-09-20T09:07:03.530Z,28.38
2018-09-20T09:09:29.846Z,28.52
2018-09-20T09:11:56.209Z,28.58
2018-09-20T09:14:22.482Z,28.55
2018-09-20T09:16:48.799Z,28.74
2018-09-20T09:19:15.116Z,29.08
2018-09-20T09:21:41.424Z,29.25
2018-09-20T09:24:07.741Z,29.26
2018-09-20T09:26:34.091Z,29.42
2018-09-20T09:29:00.409Z,29.55
2018-09-20T09:31:26.728Z,29.53
2018-09-20T09:33:53.040Z,29.49
2018-09-20T09:36:19.354Z,29.48
2018-09-20T09:38:45.669Z,29.40
2018-09-20T09:41:11.981Z,29.37
2018-09-20T09:43:38.298Z,29.42
2018-09-20T09:46:04.605Z,29.49
2018-09-20T09:48:30.950Z,29.38
2018-09-20T09:50:57.259Z,29.37
2018-09-20T09:53:23.575Z,29.47
2018-09-20T09:55:49.886Z,29.57
2018-09-20T09:58:16.202Z,29.55
2018-09-20T10:00:42.516Z,29.55
2018-09-20T10:03:08.824Z,29.64
2018-09-20T10:05:35.177Z,29.75
2018-09-20T10:08:01.498Z,29.72
2018-09-20T10:10:27.808Z,29.76
2018-09-20T10:12:54.130Z,29.90
2018-09-20T10:15:20.484Z,29.98
2018-09-20T10:17:46.815Z,29.95
2018-09-20T10:20:13.125Z,29.91
2018-09-20T10:22:39.448Z,29.91
2018-09-20T10:25:05.758Z,30.04
2018-09-20T10:27:32.074Z,30.05
2018-09-20T10:29:58.392Z,30.03
2018-09-20T10:32:24.710Z,30.08
2018-09-20T10:34:51.024Z,30.14
2018-09-20T10:37:17.359Z,30.14
2018-09-20T10:39:43.676Z,30.20
2018-09-20T10:42:10.035Z,30.23
2018-09-20T10:44:36.404Z,30.15
2018-09-20T10:47:02.727Z,30.10
2018-09-20T10:49:29.066Z,30.19
2018-09-20T10:51:55.387Z,30.19
2018-09-20T10:54:21.701Z,30.15
2018-09-20T10:56:48.011Z,30.20
2018-09-20T10:59:14.359Z,30.30
2018-09-20T11:01:40.665Z,30.46
2018-09-20T11:04:06.983Z,30.49
2018-09-20T11:06:33.708Z,30.41
2018-09-20T11:09:00.025Z,30.40
2018-09-20T11:11:26.338Z,30.46
2018-09-20T11:13:52.687Z,30.40
2018-09-20T11:16:19.041Z,30.44
2018-09-20T11:18:45.362Z,30.52
2018-09-20T11:21:11.673Z,30.51
2018-09-20T11:23:37.987Z,30.54
2018-09-20T11:26:04.364Z,30.50
2018-09-20T11:28:30.696Z,30.45
2018-09-20T11:30:57.008Z,30.45
2018-09-20T11:33:23.321Z,30.41
2018-09-20T11:35:49.649Z,30.39
2018-09-20T11:38:15.980Z,30.42
2018-09-20T11:40:42.311Z,30.22
2018-09-20T11:43:08.644Z,29.93
2018-09-20T11:45:34.961Z,29.64
2018-09-20T11:48:01.292Z,29.61
2018-09-20T11:50:27.608Z,29.36
2018-09-20T11:52:53.933Z,29.35
2018-09-20T11:55:20.268Z,29.45
2018-09-20T11:57:46.580Z,29.44
2018-09-20T12:00:12.891Z,29.36
2018-09-20T12:02:39.229Z,29.31
2018-09-20T12:05:05.559Z,29.32
2018-09-20T12:07:31.865Z,29.29
2018-09-20T12:09:58.205Z,29.25
2018-09-20T12:12:24.523Z,29.29
2018-09-20T12:14:50.858Z,29.14
2018-09-20T12:17:17.168Z,29.03
2018-09-20T12:19:43.515Z,28.96
2018-09-20T12:22:09.825Z,29.00
2018-09-20T12:24:36.136Z,29.03
2018-09-20T12:27:02.448Z,29.07
2018-09-20T12:29:28.785Z,29.10
2018-09-20T12:31:55.150Z,29.04
2018-09-20T12:34:21.475Z,29.06
2018-09-20T12:36:47.795Z,29.13
2018-09-20T12:39:14.103Z,29.16
2018-09-20T12:41:40.418Z,29.17
2018-09-20T12:44:06.774Z,29.16
2018-09-20T12:46:33.069Z,29.22
2018-09-20T12:48:59.376Z,29.18
2018-09-20T12:51:25.720Z,29.16
2018-09-20T12:53:52.063Z,29.09
2018-09-20T12:56:18.397Z,28.93
2018-09-20T12:58:44.728Z,28.84
2018-09-20T13:01:11.035Z,28.87
2018-09-20T13:03:37.349Z,28.84
2018-09-20T13:06:03.651Z,28.76
2018-09-20T13:08:29.985Z,28.66
2018-09-20T13:10:56.353Z,28.59
2018-09-20T13:13:22.661Z,28.58
2018-09-20T13:15:48.973Z,28.61
2018-09-20T13:18:15.311Z,28.65
2018-09-20T13:20:41.661Z,28.62
2018-09-20T13:23:07.973Z,28.55
2018-09-20T13:25:34.396Z,28.47
2018-09-20T13:28:00.743Z,28.37
2018-09-20T13:30:27.077Z,28.34
2018-09-20T13:32:53.401Z,28.30
2018-09-20T13:35:19.736Z,28.24
2018-09-20T13:37:46.111Z,28.14
2018-09-20T13:40:12.424Z,28.15
2018-09-20T13:42:38.760Z,28.12
2018-09-20T13:45:05.081Z,28.01
2018-09-20T13:47:31.417Z,27.95
2018-09-20T13:49:57.787Z,27.99
2018-09-20T13:52:24.123Z,27.99
2018-09-20T13:54:50.433Z,28.01
2018-09-20T13:57:16.764Z,27.97
2018-09-20T13:59:43.106Z,27.88
2018-09-20T14:02:09.427Z,27.74
2018-09-20T14:04:35.740Z,27.68
2018-09-20T14:07:02.054Z,27.66
2018-09-20T14:09:28.378Z,27.73
2018-09-20T14:11:54.687Z,27.74
2018-09-20T14:14:20.999Z,27.67
2018-09-20T14:16:47.333Z,27.64
2018-09-20T14:19:13.670Z,27.65
2018-09-20T14:21:39.996Z,27.67
2018-09-20T14:24:06.328Z,27.62
2018-09-20T14:26:32.661Z,27.54
2018-09-20T14:28:58.973Z,27.50
2018-09-20T14:31:25.309Z,27.41
2018-09-20T14:33:51.632Z,27.36
2018-09-20T14:36:18.117Z,27.32
2018-09-20T14:38:44.445Z,27.39
2018-09-20T14:41:10.756Z,27.46
2018-09-20T14:43:37.092Z,27.47
2018-09-20T14:46:03.429Z,27.37
2018-09-20T14:48:29.761Z,27.36
2018-09-20T14:50:56.097Z,27.36
2018-09-20T14:53:22.412Z,27.36
2018-09-20T14:55:48.728Z,27.37
2018-09-20T14:58:15.094Z,27.37
2018-09-20T15:00:41.416Z,27.36
2018-09-20T15:03:07.740Z,27.34
2018-09-20T15:05:34.054Z,27.31
2018-09-20T15:08:00.441Z,27.33
2018-09-20T15:10:26.705Z,27.33
2018-09-20T15:12:53.047Z,27.28
2018-09-20T15:15:19.377Z,27.27
2018-09-20T15:17:45.718Z,27.17
2018-09-20T15:20:12.043Z,27.09
2018-09-20T15:22:38.376Z,27.05
2018-09-20T15:25:04.759Z,27.01
2018-09-20T15:27:31.091Z,26.93
2018-09-20T15:29:57.420Z,26.91
2018-09-20T15:32:23.765Z,26.90
2018-09-20T15:34:50.049Z,26.84
2018-09-20T15:37:16.360Z,26.80
2018-09-20T15:39:42.709Z,26.76
2018-09-20T15:42:09.040Z,26.71
2018-09-20T15:44:35.418Z,26.70
2018-09-20T15:47:01.753Z,26.66
2018-09-20T15:49:28.065Z,26.65
2018-09-20T15:51:54.403Z,26.60
2018-09-20T15:54:20.713Z,26.57
2018-09-20T15:56:47.020Z,26.54
2018-09-20T15:59:13.333Z,26.49
2018-09-20T16:01:39.680Z,26.42
2018-09-20T16:04:06.243Z,26.38
2018-09-20T16:06:32.579Z,26.30
2018-09-20T16:08:58.883Z,26.29
2018-09-20T16:11:25.197Z,26.19
2018-09-20T16:13:51.504Z,26.18
2018-09-20T16:16:17.838Z,26.13
2018-09-20T16:18:44.147Z,26.08
2018-09-20T16:21:10.499Z,26.02
2018-09-20T16:23:36.846Z,25.94
2018-09-20T16:26:03.136Z,25.95
2018-09-20T16:28:29.457Z,25.92
2018-09-20T16:30:55.759Z,25.92
2018-09-20T16:33:22.066Z,25.92
2018-09-20T16:35:48.401Z,25.94
2018-09-20T16:38:14.754Z,25.89
2018-09-20T16:40:41.089Z,25.72
2018-09-20T16:43:07.439Z,25.49
2018-09-20T16:45:33.773Z,25.27
2018-09-20T16:48:00.083Z,25.34
2018-09-20T16:50:26.424Z,25.28
2018-09-20T16:52:52.809Z,25.17
2018-09-20T16:55:19.069Z,25.24
2018-09-20T16:57:45.402Z,25.28
2018-09-20T17:00:13.204Z,25.17
2018-09-20T17:02:39.525Z,24.97
2018-09-20T17:05:05.887Z,24.82
2018-09-20T17:07:32.183Z,24.78
2018-09-20T17:09:58.474Z,24.66
2018-09-20T17:12:24.832Z,24.69
2018-09-20T17:14:51.210Z,24.81
2018-09-20T17:17:17.503Z,24.73
2018-09-20T17:19:43.825Z,24.55
2018-09-20T17:22:10.131Z,24.47
2018-09-20T17:24:36.447Z,24.31
2018-09-20T17:27:02.762Z,24.34
2018-09-20T17:29:29.073Z,24.46
2018-09-20T17:31:55.387Z,24.36
2018-09-20T17:34:21.722Z,24.28
2018-09-20T17:36:48.065Z,24.17
2018-09-20T17:39:14.390Z,24.07
2018-09-20T17:41:40.719Z,24.09
2018-09-20T17:44:07.041Z,24.06
2018-09-20T17:46:33.356Z,24.03
2018-09-20T17:48:59.692Z,23.97
2018-09-20T17:51:26.019Z,23.95
2018-09-20T17:53:52.384Z,23.96
2018-09-20T17:56:18.655Z,23.90
2018-09-20T17:58:44.967Z,23.99
2018-09-20T18:01:11.285Z,24.02
2018-09-20T18:03:37.597Z,23.90
2018-09-20T18:06:03.919Z,23.63
2018-09-20T18:08:30.273Z,23.63
2018-09-20T18:10:56.676Z,23.64
2018-09-20T18:13:22.991Z,23.74
2018-09-20T18:15:49.303Z,23.80
2018-09-20T18:18:15.670Z,23.75
2018-09-20T18:20:41.939Z,23.62
2018-09-20T18:23:08.256Z,23.57
2018-09-20T18:25:34.584Z,23.44
2018-09-20T18:28:00.891Z,23.38
2018-09-20T18:30:27.212Z,23.36
2018-09-20T18:32:53.519Z,23.19
2018-09-20T18:35:19.835Z,23.11
2018-09-20T18:37:46.184Z,23.01
2018-09-20T18:40:12.549Z,23.00
2018-09-20T18:42:38.989Z,22.95
2018-09-20T18:45:05.223Z,22.85
2018-09-20T18:47:31.552Z,22.84
2018-09-20T18:49:57.870Z,22.97
2018-09-20T18:52:24.203Z,23.01
2018-09-20T18:54:50.516Z,22.74
2018-09-20T18:57:16.838Z,22.88
2018-09-20T18:59:43.168Z,23.12
2018-09-20T19:02:09.479Z,23.28
2018-09-20T19:04:35.846Z,23.40
2018-09-20T19:07:02.170Z,23.41
2018-09-20T19:09:28.494Z,23.46
2018-09-20T19:11:54.813Z,23.27
2018-09-20T19:14:21.123Z,23.24
2018-09-20T19:16:47.442Z,23.29
2018-09-20T19:19:13.798Z,23.25
2018-09-20T19:21:40.121Z,23.18
2018-09-20T19:24:06.428Z,23.18
2018-09-20T19:26:32.742Z,23.13
2018-09-20T19:28:59.058Z,23.12
2018-09-20T19:31:25.372Z,23.09
2018-09-20T19:33:51.695Z,23.04
2018-09-20T19:36:18.015Z,22.98
2018-09-20T19:38:44.355Z,22.96
2018-09-20T19:41:10.678Z,22.91
2018-09-20T19:43:49.107Z,22.85
2018-09-20T19:46:15.468Z,22.75
2018-09-20T19:48:41.786Z,22.71
2018-09-20T19:51:08.100Z,22.71
2018-09-20T19:53:34.434Z,22.76
2018-09-20T19:56:00.752Z,22.77
2018-09-20T19:58:27.063Z,22.75
2018-09-20T20:00:53.403Z,22.70
2018-09-20T20:03:19.717Z,22.68
2018-09-20T20:05:46.028Z,22.64
2018-09-20T20:08:12.348Z,22.56
2018-09-20T20:10:38.662Z,22.54
2018-09-20T20:13:04.964Z,22.48
2018-09-20T20:15:31.285Z,22.43
2018-09-20T20:17:57.615Z,22.41
2018-09-20T20:20:23.960Z,22.39
2018-09-20T20:22:50.265Z,22.41
2018-09-20T20:25:16.573Z,22.41
2018-09-20T20:27:42.929Z,22.36
2018-09-20T20:30:09.215Z,22.34
2018-09-20T20:32:35.557Z,22.23
2018-09-20T20:35:01.862Z,22.15
2018-09-20T20:37:28.204Z,22.16
2018-09-20T20:39:54.549Z,22.09
2018-09-20T20:42:20.839Z,22.04
2018-09-20T20:44:47.199Z,22.10
2018-09-20T20:47:13.532Z,22.12
2018-09-20T20:49:39.885Z,22.12
2018-09-20T20:52:06.216Z,22.11
2018-09-20T20:54:32.532Z,22.09
2018-09-20T20:56:58.874Z,22.10
2018-09-20T20:59:25.193Z,22.09
2018-09-20T21:01:51.523Z,22.06
2018-09-20T21:04:17.870Z,22.05
2018-09-20T21:06:44.200Z,21.97
2018-09-20T21:09:10.522Z,21.91
2018-09-20T21:11:36.832Z,21.92
2018-09-20T21:14:03.142Z,21.90
2018-09-20T21:16:29.473Z,21.85
2018-09-20T21:18:55.813Z,21.83
2018-09-20T21:21:22.125Z,21.82
2018-09-20T21:23:48.440Z,21.81
2018-09-20T21:26:14.812Z,21.78
2018-09-20T21:28:41.159Z,21.74
2018-09-20T21:31:07.477Z,21.74
2018-09-20T21:33:33.789Z,21.73
2018-09-20T21:36:00.097Z,21.73
2018-09-20T21:38:26.416Z,21.68
2018-09-20T21:40:52.788Z,21.67
2018-09-20T21:43:19.109Z,21.66
2018-09-20T21:45:45.433Z,21.61
2018-09-20T21:48:11.747Z,21.60
2018-09-20T21:50:38.068Z,21.58
2018-09-20T21:53:04.391Z,21.56
2018-09-20T21:55:30.707Z,21.54
2018-09-20T21:57:57.028Z,21.49
2018-09-20T22:00:23.354Z,21.45
2018-09-20T22:02:49.658Z,21.41
2018-09-20T22:05:15.961Z,21.41
2018-09-20T22:07:42.268Z,21.38
2018-09-20T22:10:08.572Z,21.28
2018-09-20T22:12:34.867Z,21.21
2018-09-20T22:15:01.172Z,21.21
2018-09-20T22:17:27.474Z,21.26
2018-09-20T22:19:53.776Z,21.26
2018-09-20T22:22:20.080Z,21.15
2018-09-20T22:24:46.392Z,21.09
2018-09-20T22:27:12.685Z,21.05
2018-09-20T22:29:39.028Z,21.04
2018-09-20T22:32:05.297Z,21.00
2018-09-20T22:34:31.593Z,20.93
2018-09-20T22:36:57.889Z,20.95
2018-09-20T22:39:24.204Z,20.90
2018-09-20T22:41:50.506Z,20.95
2018-09-20T22:44:16.809Z,20.96
2018-09-20T22:46:43.105Z,20.90
2018-09-20T22:49:09.415Z,20.89
2018-09-20T22:51:35.713Z,20.86
2018-09-20T22:54:02.010Z,20.78
2018-09-20T22:56:28.305Z,20.81
2018-09-20T22:58:54.639Z,20.87
2018-09-20T23:01:20.952Z,20.90
2018-09-20T23:03:47.252Z,20.88
2018-09-20T23:06:13.581Z,20.85
2018-09-20T23:08:39.898Z,20.81
2018-09-20T23:11:06.186Z,20.78
2018-09-20T23:13:32.472Z,20.70
2018-09-20T23:15:58.771Z,20.71
2018-09-20T23:18:25.066Z,20.73
2018-09-20T23:20:51.374Z,20.70
2018-09-20T23:23:17.669Z,20.68
2018-09-20T23:25:43.969Z,20.60
2018-09-20T23:28:10.316Z,20.49
2018-09-20T23:30:36.611Z,20.47
2018-09-20T23:33:02.904Z,20.46
2018-09-20T23:35:29.209Z,20.40
2018-09-20T23:37:57.637Z,20.35
2018-09-20T23:40:21.818Z,20.37
2018-09-20T23:42:48.115Z,20.34
2018-09-20T23:45:14.455Z,20.33
2018-09-20T23:47:40.757Z,20.28
2018-09-20T23:50:07.078Z,20.28
2018-09-20T23:52:33.398Z,20.29
2018-09-20T23:54:59.721Z,20.29
2018-09-20T23:57:26.028Z,20.23
2018-09-20T23:59:52.345Z,20.20
